Time;durP1;ratioP1;P1;durP2;ratioP2;P2;SDS_P1;SDS_P2;PMS_P1;PMS_P2;Temp;Humidity;BMP_temperature;BMP_pressure;BME280_temperature;BME280_humidity;BME280_pressure;Samples;Min_cycle;Max_cycle;Signal;HPM_P1;HPM_P2
2020/12/22 00:00:11;;;;;;;2.58;1.08;;;11.90;98.90;;;10.90;91.60;99755.97;4977970;28;20451;-80
2020/12/22 00:02:43;;;;;;;4.88;2.03;;;11.90;99.20;;;10.90;91.89;99758.69;4978288;28;20058;-80
2020/12/22 00:05:11;;;;;;;3.97;1.30;;;11.90;99.00;;;10.90;92.10;99755.97;4977874;28;20123;-81
2020/12/22 00:07:40;;;;;;;3.92;1.45;;;11.90;98.90;;;10.93;91.04;99754.72;4978149;28;20108;-83
2020/12/22 00:10:08;;;;;;;3.55;1.20;;;11.90;98.10;;;10.94;91.20;99751.78;4978050;28;20051;-83
2020/12/22 00:12:38;;;;;;;3.17;1.10;;;11.90;98.60;;;10.93;91.65;99739.22;4977273;28;20558;-83
2020/12/22 00:15:06;;;;;;;4.60;1.30;;;11.90;99.10;;;10.94;91.50;99735.44;4977806;28;20071;-83
2020/12/22 00:17:33;;;;;;;3.92;1.10;;;11.90;98.80;;;10.98;91.56;99735.03;4977830;28;20113;-81
2020/12/22 00:19:59;;;;;;;4.72;1.33;;;11.90;98.90;;;10.96;91.95;99736.06;4978053;28;20077;-81
2020/12/22 00:22:28;;;;;;;3.38;1.00;;;11.90;98.90;;;11.01;91.13;99730.03;4977269;28;20101;-83
2020/12/22 00:24:54;;;;;;;2.67;0.98;;;12.00;98.50;;;11.02;91.39;99719.97;4977464;28;20126;-81
2020/12/22 00:27:21;;;;;;;2.20;0.85;;;12.00;98.20;;;11.03;91.45;99722.47;4977604;28;20102;-81
2020/12/22 00:29:48;;;;;;;2.72;1.10;;;12.00;98.60;;;11.03;91.85;99716.22;4977622;28;20049;-83
2020/12/22 00:32:15;;;;;;;2.95;0.93;;;12.00;99.40;;;11.04;91.38;99716.00;4977447;28;20047;-83
2020/12/22 00:34:42;;;;;;;3.95;0.98;;;12.00;98.70;;;11.06;91.85;99718.50;4977212;28;20073;-83
2020/12/22 00:37:08;;;;;;;2.20;0.90;;;12.00;99.20;;;11.08;91.33;99727.28;4976900;28;20042;-83
2020/12/22 00:39:36;;;;;;;1.70;0.80;;;12.00;98.30;;;11.09;91.23;99712.66;4977167;28;20442;-83
2020/12/22 00:42:03;;;;;;;4.47;1.10;;;12.00;99.00;;;11.09;92.37;99710.75;4976933;28;20140;-83
2020/12/22 00:44:29;;;;;;;3.17;1.00;;;12.10;99.40;;;11.10;92.11;99700.69;4959516;28;20039;-80
2020/12/22 00:46:57;;;;;;;3.33;1.30;;;12.10;99.50;;;11.10;91.75;99712.44;4976878;28;20058;-81
2020/12/22 00:49:23;;;;;;;2.70;1.10;;;12.10;98.80;;;11.11;92.22;99721.44;4977683;28;20046;-80
2020/12/22 00:51:50;;;;;;;3.30;0.90;;;12.10;99.10;;;11.12;92.48;99712.25;4976814;28;20505;-81
2020/12/22 00:54:17;;;;;;;4.18;0.95;;;12.10;99.10;;;11.13;92.43;99711.19;4975687;28;20061;-80
2020/12/22 00:56:48;;;;;;;3.17;1.00;;;12.20;99.10;;;11.12;92.53;99714.97;4975463;28;20051;-80
2020/12/22 00:59:20;;;;;;;3.13;1.20;;;12.20;99.00;;;11.15;91.83;99720.81;4975225;28;20046;-83
2020/12/22 01:01:47;;;;;;;2.10;0.90;;;12.20;98.50;;;11.15;92.66;99720.81;4976868;28;20047;-80
2020/12/22 01:04:14;;;;;;;2.30;1.00;;;12.20;99.30;;;11.18;92.12;99719.56;4976784;28;20081;-81
2020/12/22 01:06:41;;;;;;;2.78;1.20;;;12.20;98.90;;;11.19;92.58;99721.22;4977052;28;20054;-83
2020/12/22 01:09:09;;;;;;;2.00;0.88;;;12.20;99.30;;;11.21;92.44;99730.03;4976411;28;20090;-84
2020/12/22 01:11:37;;;;;;;2.20;1.00;;;12.20;99.30;;;11.23;92.96;99733.41;4976465;28;20130;-83
2020/12/22 01:14:05;;;;;;;4.45;1.10;;;12.30;99.80;;;11.23;93.05;99727.09;4976774;28;20507;-83
2020/12/22 01:16:32;;;;;;;4.38;1.10;;;12.30;99.80;;;11.26;93.62;99723.97;4976972;28;20046;-83
2020/12/22 01:18:59;;;;;;;2.05;0.90;;;12.30;99.90;;;11.27;94.37;99720.19;4976253;28;20145;-83
2020/12/22 01:21:26;;;;;;;1.83;0.90;;;12.40;99.90;;;11.27;94.04;99723.78;4976184;28;20125;-83
2020/12/22 01:23:53;;;;;;;4.03;0.90;;;12.40;99.90;;;11.30;94.05;99711.59;4974615;28;20237;-83
2020/12/22 01:26:21;;;;;;;2.03;0.90;;;12.40;99.90;;;11.32;93.89;99726.69;4975945;28;20063;-83
2020/12/22 01:28:48;;;;;;;2.20;0.98;;;12.40;99.90;;;11.35;94.68;99723.56;4976287;28;20102;-83
2020/12/22 01:31:25;;;;;;;2.10;1.08;;;12.40;99.90;;;11.38;94.71;99725.00;4976136;28;20081;-83
2020/12/22 01:33:53;;;;;;;2.05;0.80;;;12.50;99.90;;;11.40;94.84;99724.81;4975687;28;20073;-81
2020/12/22 01:36:20;;;;;;;2.50;1.00;;;12.50;99.90;;;11.41;95.59;99729.22;4976121;28;20055;-81
2020/12/22 01:38:48;;;;;;;2.85;1.00;;;12.50;99.90;;;11.41;95.99;99729.22;4975888;28;20117;-81
2020/12/22 01:41:16;;;;;;;1.35;0.70;;;12.60;99.90;;;11.43;95.52;99724.41;4975859;28;20551;-80
2020/12/22 01:43:43;;;;;;;2.72;1.00;;;12.60;99.90;;;11.46;95.86;99726.69;4975859;28;20123;-80
2020/12/22 01:46:10;;;;;;;3.25;0.90;;;12.60;99.90;;;11.48;95.21;99724.59;4976251;28;20066;-81
2020/12/22 01:48:38;;;;;;;4.30;1.17;;;12.60;99.90;;;11.48;95.83;99730.91;4974436;28;20118;-80
2020/12/22 01:51:06;;;;;;;2.55;1.05;;;12.60;99.90;;;11.51;95.39;99740.53;4976017;28;20491;-81
2020/12/22 01:53:32;;;;;;;2.63;0.80;;;12.60;99.90;;;11.52;95.48;99725.88;4975371;28;20137;-81
2020/12/22 01:55:59;;;;;;;2.58;0.93;;;12.60;99.90;;;11.54;96.48;99730.06;4955125;29;20580;-81
2020/12/22 01:58:26;;;;;;;3.50;0.90;;;12.70;99.90;;;11.59;95.52;99731.31;4956087;29;20125;-81
2020/12/22 02:00:53;;;;;;;2.85;1.02;;;12.70;99.90;;;11.59;95.83;99721.22;4956291;29;20079;-81
2020/12/22 02:03:19;;;;;;;1.80;0.77;;;12.80;99.90;;;11.62;97.01;99718.09;4956065;29;20200;-81
2020/12/22 02:05:47;;;;;;;4.05;1.05;;;12.80;99.90;;;11.63;97.55;99719.78;4956721;29;20419;-80
2020/12/22 02:08:14;;;;;;;2.72;1.00;;;12.80;99.90;;;11.66;97.76;99727.53;4956919;29;20108;-81
2020/12/22 02:10:51;;;;;;;3.47;1.10;;;12.90;99.90;;;11.69;98.24;99723.53;4956216;28;20078;-80
2020/12/22 02:13:18;;;;;;;6.03;1.17;;;12.90;99.90;;;11.71;98.64;99724.19;4955233;29;20103;-81
2020/12/22 02:15:44;;;;;;;1.98;0.90;;;12.90;99.90;;;11.74;98.41;99729.19;4955855;29;20519;-81
2020/12/22 02:18:12;;;;;;;3.55;0.95;;;13.00;99.90;;;11.76;98.28;99715.34;4955966;29;20066;-80
2020/12/22 02:20:41;;;;;;;3.55;1.10;;;13.00;99.90;;;11.78;98.57;99718.69;4956690;29;20075;-80
2020/12/22 02:23:09;;;;;;;3.33;1.10;;;13.00;99.90;;;11.79;98.19;99714.94;4955840;29;20154;-81
2020/12/22 02:25:36;;;;;;;3.63;1.10;;;13.00;99.90;;;11.83;98.27;99713.47;4955553;29;20101;-83
2020/12/22 02:28:02;;;;;;;2.13;0.90;;;13.10;99.90;;;11.85;98.42;99722.25;4955907;29;20098;-81
2020/12/22 02:30:29;;;;;;;5.68;1.27;;;13.10;99.90;;;11.88;98.30;99719.09;4955665;29;20047;-81
2020/12/22 02:32:56;;;;;;;4.80;1.10;;;13.10;99.90;;;11.89;98.82;99718.91;4955778;29;20078;-81
2020/12/22 02:35:22;;;;;;;2.60;0.85;;;13.20;99.90;;;11.90;98.80;99717.88;4956404;29;20039;-81
2020/12/22 02:37:49;;;;;;;4.72;1.20;;;13.20;99.90;;;11.91;98.84;99721.44;4955694;29;20048;-81
2020/12/22 02:40:17;;;;;;;4.10;1.08;;;13.30;99.90;;;11.93;99.35;99716.59;4955886;29;20055;-81
2020/12/22 02:42:43;;;;;;;2.97;1.15;;;13.30;99.90;;;11.94;99.36;99712.84;4955019;29;20652;-81
2020/12/22 02:45:10;;;;;;;3.85;1.10;;;13.30;99.90;;;11.98;99.39;99715.97;4954236;29;20482;-81
2020/12/22 02:47:37;;;;;;;2.67;1.00;;;13.30;99.90;;;11.99;98.88;99721.19;4955661;29;20138;-81
2020/12/22 02:50:03;;;;;;;3.45;1.00;;;13.30;99.90;;;12.02;99.42;99712.59;4955855;29;20123;-80
2020/12/22 02:52:30;;;;;;;2.80;1.10;;;13.30;99.90;;;12.03;99.53;99716.16;4955092;29;20133;-81
2020/12/22 02:54:57;;;;;;;4.43;1.20;;;13.40;99.90;;;12.05;99.33;99722.22;4954939;29;20046;-81
2020/12/22 02:57:25;;;;;;;4.38;1.30;;;13.40;99.90;;;12.05;99.20;99709.47;4953836;29;20158;-80
2020/12/22 02:59:52;;;;;;;3.47;1.10;;;13.40;99.90;;;12.07;99.81;99726.44;4955503;29;20121;-81
2020/12/22 03:02:18;;;;;;;3.00;1.10;;;13.40;99.90;;;12.10;99.85;99712.34;4955202;29;20518;-83
2020/12/22 03:04:45;;;;;;;4.18;1.20;;;13.50;99.90;;;12.09;100.00;99713.44;4955244;29;20146;-83
2020/12/22 03:07:12;;;;;;;3.65;1.13;;;13.50;99.90;;;12.11;99.15;99719.50;4954726;29;20500;-83
2020/12/22 03:09:38;;;;;;;3.90;1.15;;;13.50;99.90;;;12.13;99.26;99722.84;4954839;29;20085;-81
2020/12/22 03:12:05;;;;;;;3.90;1.10;;;13.50;99.90;;;12.15;99.19;99706.28;4954856;29;20138;-81
2020/12/22 03:14:33;;;;;;;7.88;1.70;;;13.50;99.90;;;12.16;99.69;99705.22;4954508;29;20071;-81
2020/12/22 03:16:59;;;;;;;3.08;1.00;;;13.50;99.90;;;12.18;99.20;99703.09;4955029;29;20057;-81
2020/12/22 03:19:26;;;;;;;5.03;1.10;;;13.50;99.90;;;12.21;99.24;99710.03;4954732;29;20043;-81
2020/12/22 03:21:53;;;;;;;2.83;1.00;;;13.60;99.90;;;12.21;99.57;99704.59;4955037;29;20142;-81
2020/12/22 03:24:19;;;;;;;3.20;1.02;;;13.60;99.90;;;12.22;99.58;99715.28;4958569;28;20517;-81
2020/12/22 03:26:46;;;;;;;4.70;1.10;;;13.60;99.90;;;12.25;99.63;99719.47;4959097;29;20079;-80
2020/12/22 03:29:13;;;;;;;2.88;1.00;;;13.60;99.90;;;12.26;99.53;99712.94;4958813;29;20050;-81
2020/12/22 03:31:40;;;;;;;3.92;1.10;;;13.70;99.90;;;12.27;99.90;99703.72;4958676;29;20079;-80
2020/12/22 03:34:07;;;;;;;3.67;1.02;;;13.70;99.90;;;12.26;99.17;99707.47;4959256;29;20087;-81
2020/12/22 03:36:34;;;;;;;3.25;1.10;;;13.70;99.90;;;12.29;99.61;99716.06;4958997;29;20067;-81
2020/12/22 03:39:01;;;;;;;3.47;1.10;;;13.70;99.90;;;12.29;99.56;99716.06;4958984;29;20051;-81
2020/12/22 03:41:27;;;;;;;4.50;1.00;;;13.70;99.90;;;12.30;98.94;99722.38;4958558;29;20093;-81
2020/12/22 03:43:54;;;;;;;3.33;1.20;;;13.70;99.90;;;12.33;99.50;99727.41;4958741;29;20139;-80
2020/12/22 03:46:22;;;;;;;4.53;1.10;;;13.70;99.90;;;12.33;99.88;99724.66;4958582;29;20055;-81
2020/12/22 03:48:50;;;;;;;3.75;1.30;;;13.70;99.90;;;12.35;99.55;99729.91;4974483;28;20050;-81
2020/12/22 03:51:17;;;;;;;4.82;1.00;;;13.70;99.90;;;12.36;99.77;99726.16;4976933;28;20589;-81
2020/12/22 03:53:43;;;;;;;2.67;1.05;;;13.70;99.90;;;12.37;99.86;99734.09;4977323;28;20050;-81
2020/12/22 03:56:10;;;;;;;8.90;1.17;;;13.80;99.90;;;12.38;99.91;99735.78;4977598;28;20615;-81
2020/12/22 03:58:37;;;;;;;4.32;0.93;;;13.80;99.90;;;12.39;99.43;99740.16;4977687;28;20042;-81
2020/12/22 04:01:03;;;;;;;3.28;1.20;;;13.80;99.90;;;12.40;99.43;99732.84;4977933;28;20054;-81
2020/12/22 04:03:30;;;;;;;6.22;1.45;;;13.80;99.90;;;12.41;99.68;99729.03;4977369;28;20134;-81
2020/12/22 04:05:58;;;;;;;3.85;1.10;;;13.80;99.90;;;12.42;99.86;99737.03;4977528;28;20082;-81
2020/12/22 04:08:24;;;;;;;3.78;1.00;;;13.80;99.90;;;12.44;99.89;99731.34;4977289;28;20204;-81
2020/12/22 04:10:51;;;;;;;3.65;1.20;;;13.90;99.90;;;12.45;99.68;99728.41;4977324;28;20053;-80
2020/12/22 04:13:18;;;;;;;3.80;1.20;;;13.90;99.90;;;12.47;99.37;99720.00;4976839;28;20121;-80
2020/12/22 04:15:45;;;;;;;4.43;1.05;;;13.90;99.90;;;12.47;99.37;99739.94;4977783;28;20874;-81
2020/12/22 04:18:11;;;;;;;4.38;1.00;;;13.90;99.90;;;12.48;99.27;99736.16;4977179;28;20125;-81
2020/12/22 04:20:38;;;;;;;2.42;0.80;;;13.90;99.90;;;12.51;99.49;99748.53;4977470;28;20158;-81
2020/12/22 04:23:05;;;;;;;3.28;0.95;;;13.90;99.90;;;12.51;99.15;99746.66;4977522;28;20078;-81
2020/12/22 04:25:32;;;;;;;2.72;0.90;;;13.90;99.90;;;12.51;99.19;99746.66;4977696;28;20039;-81
2020/12/22 04:27:59;;;;;;;2.20;0.90;;;13.90;99.90;;;12.52;99.33;99748.31;4977384;28;20126;-81
2020/12/22 04:30:26;;;;;;;3.83;1.00;;;13.90;99.90;;;12.54;99.31;99750.81;4977456;28;20058;-81
2020/12/22 04:32:52;;;;;;;3.92;1.02;;;14.00;99.90;;;12.55;99.31;99752.50;4977414;28;20129;-81
2020/12/22 04:35:19;;;;;;;3.20;1.00;;;14.00;99.90;;;12.58;99.39;99756.69;4976214;28;20046;-80
2020/12/22 04:37:46;;;;;;;2.67;1.00;;;14.00;99.90;;;12.58;98.90;99773.06;4977089;28;20070;-81
2020/12/22 04:40:13;;;;;;;2.03;0.90;;;14.00;99.90;;;12.58;98.82;99770.34;4977332;28;20126;-80
2020/12/22 04:42:42;;;;;;;2.45;1.05;;;14.00;99.90;;;12.59;98.98;99766.56;4976994;28;20054;-81
2020/12/22 04:45:10;;;;;;;3.05;1.02;;;14.00;99.90;;;12.59;98.98;99763.84;4976835;28;20125;-81
2020/12/22 04:47:41;;;;;;;2.53;0.77;;;14.00;99.90;;;12.60;99.24;99771.78;4975479;28;20694;-81
2020/12/22 04:50:09;;;;;;;;;;;14.00;99.90;;;12.60;98.79;99765.50;4977962;28;20066;-81
2020/12/22 04:52:36;;;;;;;3.25;0.77;;;14.00;99.90;;;12.61;98.85;99775.38;4977056;28;20025;-81
2020/12/22 04:55:03;;;;;;;2.33;0.85;;;14.00;99.90;;;12.61;99.16;99784.41;4977430;28;20555;-81
2020/12/22 04:57:33;;;;;;;2.55;0.80;;;14.00;99.90;;;12.61;98.70;99776.22;4977168;28;20069;-81
2020/12/22 05:00:01;;;;;;;5.32;0.98;;;14.00;99.90;;;12.65;98.84;99784.81;4976641;28;20503;-81
2020/12/22 05:02:30;;;;;;;2.10;0.88;;;14.00;99.90;;;12.66;98.98;99783.72;4976281;28;20050;-81
2020/12/22 05:04:57;;;;;;;2.53;1.05;;;14.00;99.90;;;12.65;98.85;99787.53;4976265;28;20098;-80
2020/12/22 05:07:23;;;;;;;3.88;0.90;;;14.10;99.90;;;12.66;98.67;99794.66;4976257;28;20079;-81
2020/12/22 05:09:52;;;;;;;2.63;0.85;;;14.10;99.90;;;12.67;98.96;99779.97;4976548;28;20604;-81
2020/12/22 05:12:18;;;;;;;2.75;0.80;;;14.10;99.90;;;12.67;98.81;99786.25;4976146;28;20085;-82
2020/12/22 05:14:46;;;;;;;2.47;0.65;;;14.10;99.90;;;12.69;98.10;99788.78;4976852;28;20049;-82
2020/12/22 05:17:14;;;;;;;3.40;0.80;;;14.10;99.90;;;12.68;98.10;99785.22;4979431;28;20047;-82
2020/12/22 05:19:42;;;;;;;2.75;1.08;;;14.10;99.90;;;12.70;98.47;99791.28;4976839;28;20055;-82
2020/12/22 05:22:10;;;;;;;2.95;0.70;;;14.10;99.90;;;12.72;98.10;99802.00;4977100;28;20062;-82
2020/12/22 05:24:36;;;;;;;3.97;0.70;;;14.10;99.90;;;12.72;98.45;99796.53;4977864;28;20079;-83
2020/12/22 05:27:05;;;;;;;2.25;0.90;;;14.10;99.90;;;12.73;98.46;99791.91;4977973;28;20518;-83
2020/12/22 05:29:33;;;;;;;6.03;0.93;;;14.10;99.90;;;12.73;98.38;99794.66;4979389;28;20181;-83
2020/12/22 05:32:00;;;;;;;1.85;0.63;;;14.10;99.90;;;12.74;98.50;99821.72;4978046;28;20554;-83
2020/12/22 05:34:28;;;;;;;6.45;0.90;;;14.10;99.90;;;12.74;98.77;99819.00;4977241;28;20042;-83
2020/12/22 05:36:59;;;;;;;2.55;0.60;;;14.10;99.90;;;12.74;98.75;99805.34;4977085;28;20053;-83
2020/12/22 05:39:26;;;;;;;2.13;0.80;;;14.10;99.90;;;12.76;98.42;99818.78;4976250;28;20086;-83
2020/12/22 05:41:53;;;;;;;2.53;0.68;;;14.20;99.90;;;12.77;98.54;99801.34;4959748;28;20058;-83
2020/12/22 05:44:25;;;;;;;2.97;1.02;;;14.20;99.90;;;12.78;98.64;99819.41;4957683;29;20054;-83
2020/12/22 05:46:53;;;;;;;2.15;0.73;;;14.20;99.90;;;12.78;98.89;99812.06;4957693;28;20051;-83
2020/12/22 05:49:21;;;;;;;3.97;0.93;;;14.20;99.90;;;12.77;98.70;99806.81;4957592;29;20488;-83
2020/12/22 05:51:49;;;;;;;1.65;0.77;;;14.20;99.90;;;12.79;98.46;99812.88;4958074;29;20082;-83
2020/12/22 05:54:17;;;;;;;2.20;0.77;;;14.20;99.90;;;12.78;98.97;99833.91;4957424;29;20039;-84
2020/12/22 05:56:44;;;;;;;2.90;0.68;;;14.20;99.90;;;12.80;99.03;99820.88;4957348;29;20043;-83
2020/12/22 05:59:18;;;;;;;1.83;0.80;;;14.20;99.90;;;12.81;99.10;99827.16;4958833;29;20082;-83
2020/12/22 06:01:45;;;;;;;3.45;0.90;;;14.20;99.90;;;12.80;99.00;99831.78;4958481;29;20135;-84
2020/12/22 06:04:12;;;;;;;4.13;0.80;;;14.20;99.90;;;12.80;99.81;99836.41;4957318;29;20471;-83
2020/12/22 06:06:40;;;;;;;4.78;1.08;;;14.20;99.90;;;12.80;99.63;99836.41;4957962;29;20043;-84
2020/12/22 06:09:08;;;;;;;3.28;0.90;;;14.20;99.90;;;12.81;99.68;99832.63;4958208;29;20067;-83
2020/12/22 06:11:37;;;;;;;5.03;0.90;;;14.20;99.90;;;12.82;99.40;99843.31;4957808;29;20109;-83
2020/12/22 06:14:05;;;;;;;1.98;0.80;;;14.20;99.90;;;12.82;99.70;99842.50;4958543;29;20051;-84
2020/12/22 06:16:32;;;;;;;2.47;0.90;;;14.20;99.90;;;12.82;99.83;99846.06;4958379;29;20047;-83
2020/12/22 06:18:59;;;;;;;2.78;1.13;;;14.20;99.90;;;12.82;99.65;99848.78;4957535;29;20123;-83
2020/12/22 06:21:26;;;;;;;1.63;0.80;;;14.20;99.90;;;12.82;100.00;99858.88;4957234;29;20039;-84
2020/12/22 06:23:55;;;;;;;1.75;0.80;;;14.20;99.90;;;12.83;99.93;99869.59;4957796;29;20051;-84
2020/12/22 06:26:22;;;;;;;2.22;0.90;;;14.20;99.90;;;12.82;100.00;99865.19;4958129;29;20110;-83
2020/12/22 06:28:49;;;;;;;3.10;1.00;;;14.20;99.90;;;12.82;100.00;99862.44;4958136;29;20055;-83
2020/12/22 06:31:21;;;;;;;2.38;0.80;;;14.20;99.90;;;12.83;100.00;99868.72;4957977;29;20078;-83
2020/12/22 06:33:48;;;;;;;1.98;0.85;;;14.20;99.90;;;12.84;99.83;99864.97;4958541;29;20123;-83
2020/12/22 06:36:17;;;;;;;2.15;0.80;;;14.20;99.90;;;12.84;100.00;99871.25;4957168;29;20078;-83
2020/12/22 06:38:56;;;;;;;1.77;0.80;;;14.20;99.90;;;12.83;100.00;99869.59;4958775;29;20059;-83
2020/12/22 06:41:43;;;;;;;2.25;0.90;;;14.20;99.90;;;12.84;99.56;99860.34;4958182;29;20086;-83
2020/12/22 06:44:29;;;;;;;1.90;0.90;;;14.20;99.90;;;12.85;99.57;99872.94;4959566;29;20530;-83
2020/12/22 06:46:57;;;;;;;2.25;0.90;;;14.20;99.90;;;12.85;100.00;99888.47;4958703;29;20134;-83
2020/12/22 06:49:53;;;;;;;1.80;0.80;;;14.20;99.90;;;12.84;99.59;99884.91;4959187;29;20071;-83
2020/12/22 06:52:34;;;;;;;4.60;1.10;;;14.20;99.90;;;12.84;99.79;99887.63;4939083;29;20057;-83
2020/12/22 06:55:05;;;;;;;3.10;1.10;;;14.20;99.90;;;12.85;100.00;99889.34;4957728;29;20050;-83
2020/12/22 06:57:52;;;;;;;5.93;1.58;;;14.20;99.90;;;12.85;99.99;99881.13;4958933;28;20046;-83
2020/12/22 07:00:40;;;;;;;3.38;1.42;;;14.20;99.90;;;12.84;100.00;99884.09;4956767;29;20561;-83
2020/12/22 07:03:12;;;;;;;3.25;1.20;;;14.20;99.90;;;12.85;99.88;99889.34;4961671;29;20059;-85
2020/12/22 07:05:41;;;;;;;5.07;1.10;;;14.20;99.90;;;12.85;99.80;99894.78;4959310;29;20039;-83
2020/12/22 07:08:08;;;;;;;3.25;1.10;;;14.20;99.90;;;12.85;100.00;99894.78;4960805;29;20081;-83
2020/12/22 07:10:43;;;;;;;2.17;1.13;;;14.20;99.90;;;12.85;99.79;99893.94;4961105;29;20134;-83
2020/12/22 07:13:12;;;;;;;3.63;1.10;;;14.20;99.90;;;12.84;100.00;99906.75;4959804;29;20431;-83
2020/12/22 07:15:44;;;;;;;2.78;1.10;;;14.20;99.90;;;12.84;100.00;99890.38;4957556;29;20042;-83
2020/12/22 07:18:13;;;;;;;3.20;1.00;;;14.20;99.90;;;12.84;100.00;99906.75;4959918;29;20071;-83
2020/12/22 07:20:43;;;;;;;3.97;1.00;;;14.20;99.90;;;12.85;99.94;99911.19;4958317;29;20048;-85
2020/12/22 07:23:12;;;;;;;4.90;1.10;;;14.20;99.90;;;12.85;100.00;99922.09;4957338;29;20086;-82
2020/12/22 07:25:41;;;;;;;2.60;1.02;;;14.20;99.90;;;12.86;99.77;99921.03;4958894;29;20047;-83
2020/12/22 07:28:11;;;;;;;2.30;1.15;;;14.20;99.90;;;12.86;99.57;99922.94;4959147;29;20083;-83
2020/12/22 07:30:38;;;;;;;3.05;1.10;;;14.20;99.90;;;12.87;99.60;99925.47;4960805;29;20070;-81
2020/12/22 07:33:06;;;;;;;4.43;1.30;;;14.20;99.90;;;12.87;99.68;99930.06;4958150;29;20095;-82
2020/12/22 07:35:34;;;;;;;4.60;1.35;;;14.20;99.90;;;12.86;99.66;99934.69;4958636;29;20070;-81
2020/12/22 07:38:05;;;;;;;2.55;1.20;;;14.20;99.90;;;12.89;99.26;99930.72;4962926;28;20098;-81
2020/12/22 07:40:32;;;;;;;4.50;1.80;;;14.20;99.90;;;12.89;99.44;99945.19;4983383;28;20085;-81
2020/12/22 07:43:11;;;;;;;3.55;1.60;;;14.20;99.90;;;12.90;98.79;99935.09;4998463;28;20046;-81
2020/12/22 07:45:48;;;;;;;3.50;1.20;;;14.20;99.90;;;12.88;99.21;99943.50;4992706;28;20074;-82
2020/12/22 07:48:15;;;;;;;4.70;1.30;;;14.20;99.90;;;12.88;99.02;99948.97;4978956;28;20110;-82
2020/12/22 07:50:41;;;;;;;3.05;1.33;;;14.20;99.90;;;12.88;98.64;99939.94;4979709;28;20531;-82
2020/12/22 07:53:08;;;;;;;4.25;1.95;;;14.20;99.90;;;12.87;98.82;99950.03;4980306;28;20082;-82
2020/12/22 07:55:39;;;;;;;3.10;1.50;;;14.20;99.90;;;12.89;98.79;99956.13;4979343;28;20140;-82
2020/12/22 07:58:08;;;;;;;4.82;1.60;;;14.20;99.90;;;12.88;98.43;99968.09;4980000;28;20055;-82
2020/12/22 08:00:36;;;;;;;3.78;1.20;;;14.20;99.90;;;12.88;98.56;99962.63;4980109;28;20074;-81
2020/12/22 08:03:20;;;;;;;3.65;1.00;;;14.20;99.90;;;12.88;98.50;99964.53;4979138;28;20050;-82
2020/12/22 08:05:58;;;;;;;3.60;1.00;;;14.20;99.90;;;12.88;98.18;99954.44;4979988;28;20122;-82
2020/12/22 08:08:25;;;;;;;3.05;0.90;;;14.20;99.90;;;12.89;98.35;99966.22;4980099;28;20107;-82
2020/12/22 08:10:52;;;;;;;3.65;1.17;;;14.20;99.90;;;12.90;97.99;99971.44;4982994;28;20070;-82
2020/12/22 08:13:24;;;;;;;3.83;1.20;;;14.20;99.70;;;12.89;97.67;99977.97;4983585;28;20039;-82
2020/12/22 08:15:52;;;;;;;2.15;0.90;;;14.20;99.80;;;12.89;97.80;99975.25;4984350;28;20055;-82
2020/12/22 08:18:19;;;;;;;4.78;1.08;;;14.20;99.80;;;12.91;97.60;99975.03;4984710;28;20049;-82
2020/12/22 08:20:46;;;;;;;6.15;1.40;;;14.20;99.50;;;12.90;97.43;99974.16;4984377;28;20149;-82
2020/12/22 08:23:13;;;;;;;3.05;1.20;;;14.20;99.40;;;12.93;96.97;99985.72;4982929;28;20841;-82
2020/12/22 08:25:40;;;;;;;2.45;0.95;;;14.20;99.50;;;12.91;96.72;99986.78;4983232;28;20078;-82
2020/12/22 08:28:06;;;;;;;3.17;1.25;;;14.20;99.20;;;12.91;96.77;99992.25;4984151;28;20141;-84
2020/12/22 08:30:35;;;;;;;8.05;1.30;;;14.20;99.10;;;12.90;97.01;100006.13;4978588;28;20098;-85
2020/12/22 08:33:03;;;;;;;4.13;1.20;;;14.20;99.00;;;12.90;96.85;100006.13;4979091;28;20046;-84
2020/12/22 08:35:29;;;;;;;3.90;1.10;;;14.20;99.00;;;12.90;97.14;100017.88;4980284;28;20057;-84
2020/12/22 08:37:56;;;;;;;5.30;1.20;;;14.20;99.00;;;12.93;97.31;100026.69;4979449;28;20120;-84
2020/12/22 08:40:27;;;;;;;6.03;1.40;;;14.20;98.80;;;12.92;96.51;100017.66;4979194;28;20119;-83
2020/12/22 08:42:54;;;;;;;2.95;1.00;;;14.20;99.20;;;12.92;97.10;100020.41;4978269;28;20081;-86
2020/12/22 08:45:21;;;;;;;7.25;1.17;;;14.20;99.10;;;12.94;96.91;100022.91;4979166;28;20066;-83
2020/12/22 08:47:57;;;;;;;2.70;1.02;;;14.30;99.10;;;12.91;96.81;100025.03;4973849;28;20042;-84
2020/12/22 08:50:24;;;;;;;7.10;0.90;;;14.30;99.00;;;12.93;96.78;100026.69;4978484;28;20463;-83
2020/12/22 08:52:50;;;;;;;7.68;1.23;;;14.30;98.90;;;12.93;96.73;100037.63;4978083;28;20046;-84
2020/12/22 08:55:17;;;;;;;2.15;0.85;;;14.30;98.80;;;12.95;96.56;100030.06;4978658;28;20121;-83
2020/12/22 08:57:44;;;;;;;2.10;0.93;;;14.30;98.90;;;12.94;96.21;100034.69;4978407;28;20816;-84
2020/12/22 09:00:13;;;;;;;2.90;1.00;;;14.30;98.60;;;12.96;95.96;100032.56;4975373;28;20047;-84
2020/12/22 09:02:51;;;;;;;3.50;1.02;;;14.30;98.50;;;12.96;95.94;100042.66;4970696;28;20098;-84
2020/12/22 09:05:19;;;;;;;4.80;1.42;;;14.30;98.40;;;12.97;96.06;100028.81;4972974;28;20566;-84
2020/12/22 09:07:56;;;;;;;6.53;1.40;;;14.30;98.20;;;12.97;95.92;100041.63;4979395;28;20105;-84
2020/12/22 09:10:23;;;;;;;3.72;1.10;;;14.30;98.40;;;12.99;95.79;100055.91;4970202;28;20070;-84
2020/12/22 09:12:50;;;;;;;5.75;1.17;;;14.30;98.30;;;13.00;95.78;100038.44;4981658;28;20035;-83
2020/12/22 09:15:17;;;;;;;3.55;1.13;;;14.40;98.20;;;13.01;95.72;100062.84;4982637;28;20039;-83
2020/12/22 09:17:43;;;;;;;5.03;1.10;;;14.30;98.00;;;13.02;95.01;100061.78;4981075;28;20105;-85
2020/12/22 09:20:17;;;;;;;5.43;1.10;;;14.40;97.80;;;13.00;94.71;100055.66;4985435;28;20062;-85
2020/12/22 09:22:46;;;;;;;3.45;1.10;;;14.40;97.40;;;13.00;94.61;100066.59;4983160;28;20087;-84
2020/12/22 09:25:13;;;;;;;3.17;1.10;;;14.40;97.20;;;13.01;94.41;100065.56;4980582;28;20049;-85
2020/12/22 09:27:42;;;;;;;2.72;1.10;;;14.40;97.00;;;13.03;94.90;100065.34;4982463;28;20495;-85
2020/12/22 09:30:12;;;;;;;5.50;0.90;;;14.30;97.40;;;13.02;94.53;100078.19;4981629;28;20054;-85
2020/12/22 09:32:40;;;;;;;3.88;1.20;;;14.40;97.20;;;13.03;94.59;100081.75;4980635;28;20443;-85
2020/12/22 09:35:07;;;;;;;2.28;0.82;;;14.40;97.10;;;13.03;93.68;100081.75;4977611;28;20050;-85
2020/12/22 09:37:34;;;;;;;3.50;1.02;;;14.40;96.70;;;13.01;93.74;100073.75;4981915;28;20043;-85
2020/12/22 09:40:02;;;;;;;3.58;0.90;;;14.40;96.70;;;13.03;92.84;100093.50;4982649;28;20082;-84
2020/12/22 09:42:29;;;;;;;4.35;1.23;;;14.40;96.00;;;13.06;92.79;100103.16;4979181;28;20042;-85
2020/12/22 09:44:56;;;;;;;6.55;1.30;;;14.40;96.00;;;13.04;92.50;100102.53;4976874;28;20138;-86
2020/12/22 09:47:23;;;;;;;3.40;1.10;;;14.40;95.20;;;13.06;92.21;100103.16;4979132;28;20038;-86
2020/12/22 09:49:50;;;;;;;5.55;1.48;;;14.40;95.40;;;13.04;92.13;100117.06;4979313;28;20427;-87
2020/12/22 09:52:16;;;;;;;9.35;1.90;;;14.40;95.00;;;13.04;91.52;100121.66;4978863;28;20066;-86
2020/12/22 09:54:43;;;;;;;4.90;1.65;;;14.30;95.30;;;13.05;91.96;100124.19;4979767;28;20067;-86
2020/12/22 09:57:11;;;;;;;5.75;1.80;;;14.40;95.30;;;13.05;91.80;100126.09;4979670;28;20074;-86
2020/12/22 09:59:37;;;;;;;9.23;1.48;;;14.40;95.00;;;13.06;91.66;100119.56;4980357;28;20093;-86
2020/12/22 10:02:04;;;;;;;7.00;1.70;;;14.40;95.20;;;13.05;92.16;100118.72;4979774;28;20467;-85
2020/12/22 10:04:33;;;;;;;6.60;1.67;;;14.40;95.40;;;13.07;91.67;100122.06;4980699;28;20039;-86
2020/12/22 10:07:01;;;;;;;4.47;1.38;;;14.40;95.00;;;13.07;90.71;100122.06;4978533;28;20047;-86
2020/12/22 10:09:28;;;;;;;4.47;1.50;;;14.40;94.40;;;13.07;91.04;100133.00;4976247;28;20042;-87
2020/12/22 10:11:55;;;;;;;3.80;1.40;;;14.40;94.80;;;13.08;91.15;100134.69;4974259;28;20112;-88
2020/12/22 10:14:22;;;;;;;4.57;1.40;;;14.40;94.90;;;13.09;90.38;100146.47;4974213;28;20491;-86
2020/12/22 10:16:49;;;;;;;6.35;1.27;;;14.40;94.10;;;13.10;91.13;100142.69;4979075;28;20096;-86
2020/12/22 10:19:16;;;;;;;5.63;1.70;;;14.40;94.60;;;13.09;90.50;100151.94;4980563;28;20107;-85
2020/12/22 10:21:42;;;;;;;4.65;1.60;;;14.40;94.20;;;13.11;90.78;100149.81;4985126;28;20066;-85